Norphlet, Arkansas
Current Conditions -  °F | °C
As of 1:53 AM on Friday 19 Dec 2014 (Local Time) from KELD Reporting Station
Overcast Overcast  
Wind Chill: 41°   Ceiling: 700
Heat Index: 45°   Visibility: 8mi
Dew Point: 43°   Wind: 7mph
Humidity: 93%   Direction: 50°NE
Pressure: 30.16"   Gusts: NA
Location:  33.32°N, 92.66°W
Report Text: KELD 190753Z AUTO 05006KT 8SM OVC007 07/06 A3016 RMK AO2 SLP212 T00720061
Loading
Personal Weather Stations






























Interactive Weather Map New forecast layout! Learn more

10-Day Weather Forecast

Advertisements
Track Severe Weather on mobile